Time;durP1;ratioP1;P1;durP2;ratioP2;P2;SDS_P1;SDS_P2;PMS_P1;PMS_P2;Temp;Humidity;BMP_temperature;BMP_pressure;BME280_temperature;BME280_humidity;BME280_pressure;Samples;Min_cycle;Max_cycle;Signal;HPM_P1;HPM_P2
2022/01/09 00:01:24;;;;;;;;;;;5.00;99.90;;;;;;5015219;28;19922;-78
2022/01/09 00:03:51;;;;;;;;;;;5.10;99.90;;;;;;5031732;28;19972;-78
2022/01/09 00:06:18;;;;;;;;;;;5.10;99.90;;;;;;5016873;28;20012;-78
2022/01/09 00:09:10;;;;;;;;;;;5.10;99.90;;;;;;5015940;28;19930;-78
2022/01/09 00:11:38;;;;;;;;;;;5.10;99.90;;;;;;5016606;28;20326;-78
2022/01/09 00:14:04;;;;;;;;;;;5.10;99.90;;;;;;4998567;28;20012;-78
2022/01/09 00:16:31;;;;;;;;;;;5.10;99.90;;;;;;5012684;28;19926;-78
2022/01/09 00:18:58;;;;;;;;;;;5.10;99.90;;;;;;4998036;28;19937;-78
2022/01/09 00:21:25;;;;;;;;;;;5.10;99.90;;;;;;5016212;28;20387;-78
2022/01/09 00:23:52;;;;;;;;;;;5.10;99.90;;;;;;5014748;28;19932;-77
2022/01/09 00:26:19;;;;;;;;;;;5.10;99.90;;;;;;5016568;28;19925;-78
2022/01/09 00:28:47;;;;;;;;;;;5.10;99.90;;;;;;5014676;28;19932;-78
2022/01/09 00:31:14;;;;;;;;;;;5.10;99.90;;;;;;4998592;28;20408;-77
2022/01/09 00:33:41;;;;;;;;;;;5.10;99.90;;;;;;4987082;28;20388;-78
2022/01/09 00:36:08;;;;;;;;;;;5.20;99.90;;;;;;5003149;28;19925;-77
2022/01/09 00:38:35;;;;;;;;;;;5.20;99.90;;;;;;5015580;28;19935;-78
2022/01/09 00:41:01;;;;;;;;;;;5.20;99.90;;;;;;5031456;28;20405;-78
2022/01/09 00:43:30;;;;;;;;;;;5.20;99.90;;;;;;4998066;28;19926;-78
2022/01/09 00:45:58;;;;;;;;;;;5.20;99.90;;;;;;5005020;28;19949;-78
2022/01/09 00:48:26;;;;;;;;;;;5.20;99.90;;;;;;4994070;28;19929;-78
2022/01/09 00:50:53;;;;;;;;;;;5.20;99.90;;;;;;5015863;28;20409;-78
2022/01/09 00:53:19;;;;;;;;;;;5.30;99.90;;;;;;4997768;28;19932;-78
2022/01/09 00:55:46;;;;;;;;;;;5.20;99.90;;;;;;5015047;28;20012;-78
2022/01/09 00:58:13;;;;;;;;;;;5.20;99.90;;;;;;5030682;28;19929;-78
2022/01/09 01:00:40;;;;;;;;;;;5.20;99.90;;;;;;5014288;28;19926;-78
2022/01/09 01:03:08;;;;;;;;;;;5.20;99.90;;;;;;4997727;28;19933;-77
2022/01/09 01:05:35;;;;;;;;;;;5.20;99.90;;;;;;5015656;28;19932;-77
2022/01/09 01:08:02;;;;;;;;;;;5.30;99.90;;;;;;5013943;28;20484;-78
2022/01/09 01:10:29;;;;;;;;;;;5.30;99.90;;;;;;5030651;28;19926;-78
2022/01/09 01:12:55;;;;;;;;;;;5.30;99.90;;;;;;4998193;28;19925;-78
2022/01/09 01:15:22;;;;;;;;;;;5.20;99.90;;;;;;4997939;28;20016;-77
2022/01/09 01:17:49;;;;;;;;;;;5.20;99.90;;;;;;4997278;28;20323;-78
2022/01/09 01:20:21;;;;;;;;;;;5.30;99.90;;;;;;4997814;28;19926;-78
2022/01/09 01:22:50;;;;;;;;;;;5.30;99.90;;;;;;4995094;28;19925;-78
2022/01/09 01:25:17;;;;;;;;;;;5.30;99.90;;;;;;4997692;28;20845;-77
2022/01/09 01:27:44;;;;;;;;;;;5.30;99.90;;;;;;4997307;28;19930;-78
2022/01/09 01:30:11;;;;;;;;;;;5.30;99.90;;;;;;5030002;28;20024;-78
2022/01/09 01:32:37;;;;;;;;;;;5.30;99.90;;;;;;5013544;28;20376;-77
2022/01/09 01:35:05;;;;;;;;;;;5.30;99.90;;;;;;5013894;28;19932;-77
2022/01/09 01:37:33;;;;;;;;;;;5.30;99.90;;;;;;5030308;28;20020;-78
2022/01/09 01:40:00;;;;;;;;;;;5.30;99.90;;;;;;5015091;28;19926;-78
2022/01/09 01:42:26;;;;;;;;;;;5.30;99.90;;;;;;4981157;28;19929;-77
2022/01/09 01:44:53;;;;;;;;;;;5.30;99.90;;;;;;5030082;28;19932;-78
2022/01/09 01:47:21;;;;;;;;;;;5.30;99.90;;;;;;4980597;28;19973;-77
2022/01/09 01:49:48;;;;;;;;;;;5.30;99.90;;;;;;4996966;28;19932;-77
2022/01/09 01:52:16;;;;;;;;;;;5.30;99.90;;;;;;4997216;28;19957;-78
2022/01/09 01:54:44;;;;;;;;;;;5.40;99.90;;;;;;4995615;28;19925;-77
2022/01/09 01:57:11;;;;;;;;;;;5.40;99.90;;;;;;5011091;28;20388;-77
2022/01/09 01:59:38;;;;;;;;;;;5.40;99.90;;;;;;5011799;28;20825;-78
2022/01/09 02:02:05;;;;;;;;;;;5.40;99.90;;;;;;5014818;28;19968;-78
2022/01/09 02:04:32;;;;;;;;;;;5.40;99.90;;;;;;5013636;28;19926;-78
2022/01/09 02:06:59;;;;;;;;;;;5.50;99.90;;;;;;5014429;28;19930;-78
2022/01/09 02:09:26;;;;;;;;;;;5.50;99.90;;;;;;5014702;28;19976;-77
2022/01/09 02:11:54;;;;;;;;;;;5.50;99.90;;;;;;4997302;28;19925;-78
2022/01/09 02:14:21;;;;;;;;;;;5.50;99.90;;;;;;4996969;28;19929;-78
2022/01/09 02:16:50;;;;;;;;;;;5.50;99.90;;;;;;4997351;28;19930;-78
2022/01/09 02:19:17;;;;;;;;;;;5.60;99.90;;;;;;4996784;28;20012;-78
2022/01/09 02:21:45;;;;;;;;;;;5.60;99.90;;;;;;4997160;28;19929;-78
2022/01/09 02:24:12;;;;;;;;;;;5.60;99.90;;;;;;4996877;28;19933;-78
2022/01/09 02:26:39;;;;;;;;;;;5.60;99.90;;;;;;4996821;28;19984;-78
2022/01/09 02:29:06;;;;;;;;;;;5.60;99.90;;;;;;4996960;28;19932;-78
2022/01/09 02:31:33;;;;;;;;;;;5.60;99.90;;;;;;5012392;28;19926;-78
2022/01/09 02:34:01;;;;;;;;;;;5.60;99.90;;;;;;5029939;28;19932;-78
2022/01/09 02:36:28;;;;;;;;;;;5.60;99.90;;;;;;4996616;28;19937;-77
2022/01/09 02:38:56;;;;;;;;;;;5.60;99.90;;;;;;4996665;28;19965;-78
2022/01/09 02:41:23;;;;;;;;;;;5.60;99.90;;;;;;5029621;28;20400;-78
2022/01/09 02:43:50;;;;;;;;;;;5.70;99.90;;;;;;4999261;28;19926;-78
2022/01/09 02:46:29;;;;;;;;;;;5.70;99.90;;;;;;5016382;28;19929;-78
2022/01/09 02:48:57;;;;;;;;;;;5.70;99.90;;;;;;4999884;28;19932;-78
2022/01/09 02:51:25;;;;;;;;;;;5.70;99.90;;;;;;4999905;28;19929;-78
2022/01/09 02:53:57;;;;;;;;;;;5.80;99.90;;;;;;4999628;28;19972;-78
2022/01/09 02:56:25;;;;;;;;;;;5.80;99.90;;;;;;4996957;28;19930;-78
2022/01/09 02:58:52;;;;;;;;;;;5.80;99.90;;;;;;5027711;28;20008;-78
2022/01/09 03:01:19;;;;;;;;;;;5.90;99.90;;;;;;5032824;28;19925;-77
2022/01/09 03:03:46;;;;;;;;;;;5.90;99.90;;;;;;5032975;28;19933;-77
2022/01/09 03:06:13;;;;;;;;;;;5.90;99.90;;;;;;5023235;28;19965;-78
2022/01/09 03:08:40;;;;;;;;;;;5.90;99.90;;;;;;4991847;28;19926;-77
2022/01/09 03:11:07;;;;;;;;;;;6.00;99.90;;;;;;5000212;28;19983;-78
2022/01/09 03:13:35;;;;;;;;;;;6.00;99.90;;;;;;5017215;28;20027;-78
2022/01/09 03:16:02;;;;;;;;;;;6.00;99.90;;;;;;4999406;28;20423;-78
2022/01/09 03:18:29;;;;;;;;;;;6.10;99.90;;;;;;5002712;28;19933;-78
2022/01/09 03:20:56;;;;;;;;;;;6.10;99.90;;;;;;4999590;28;19932;-78
2022/01/09 03:23:23;;;;;;;;;;;6.20;99.90;;;;;;5032131;28;19925;-78
2022/01/09 03:25:49;;;;;;;;;;;6.20;99.90;;;;;;4999438;28;19936;-78
2022/01/09 03:28:16;;;;;;;;;;;6.30;99.90;;;;;;5032107;28;19969;-78
2022/01/09 03:30:45;;;;;;;;;;;6.30;99.90;;;;;;4999480;28;19925;-78
2022/01/09 03:33:11;;;;;;;;;;;6.30;99.90;;;;;;4999736;28;20618;-78
2022/01/09 03:35:39;;;;;;;;;;;6.40;99.90;;;;;;5015492;28;19936;-78
2022/01/09 03:38:06;;;;;;;;;;;6.50;99.90;;;;;;4999121;28;19944;-78
2022/01/09 03:40:33;;;;;;;;;;;6.50;99.90;;;;;;4989147;28;20001;-78
2022/01/09 03:42:59;;;;;;;;;;;6.60;99.90;;;;;;5009439;28;20016;-78
2022/01/09 03:45:27;;;;;;;;;;;6.60;99.90;;;;;;5032077;28;19936;-78
2022/01/09 03:47:55;;;;;;;;;;;6.60;99.90;;;;;;5032201;28;20383;-78
2022/01/09 03:50:22;;;;;;;;;;;6.70;99.90;;;;;;5015596;28;19926;-78
2022/01/09 03:52:49;;;;;;;;;;;6.70;99.90;;;;;;5008589;28;20363;-78
2022/01/09 03:55:17;;;;;;;;;;;6.70;99.90;;;;;;5016697;28;19937;-77
2022/01/09 03:57:45;;;;;;;;;;;6.70;99.90;;;;;;5031679;28;19926;-78
2022/01/09 04:00:14;;;;;;;;;;;6.70;99.90;;;;;;4994658;28;20315;-78
2022/01/09 04:02:41;;;;;;;;;;;6.70;99.90;;;;;;4987762;28;19925;-78
2022/01/09 04:05:09;;;;;;;;;;;6.80;99.90;;;;;;4998952;28;20036;-78
2022/01/09 04:07:37;;;;;;;;;;;6.80;99.90;;;;;;5001287;28;19925;-80
2022/01/09 04:10:04;;;;;;;;;;;6.80;99.90;;;;;;4998725;28;20235;-78
2022/01/09 04:12:35;;;;;;;;;;;6.80;99.90;;;;;;4998879;28;19925;-77
2022/01/09 04:15:05;;;;;;;;;;;6.80;99.90;;;;;;4988550;28;20037;-78
2022/01/09 04:17:41;;;;;;;;;;;6.80;99.90;;;;;;5016454;28;19922;-78
2022/01/09 04:20:10;;;;;;;;;;;6.80;99.90;;;;;;5016122;28;19925;-78
2022/01/09 04:22:37;;;;;;;;;;;6.80;99.90;;;;;;5031341;28;20743;-78
2022/01/09 04:25:05;;;;;;;;;;;6.80;99.90;;;;;;4998519;28;19929;-78
2022/01/09 04:27:32;;;;;;;;;;;6.80;99.90;;;;;;5031194;28;19961;-78
2022/01/09 04:29:59;;;;;;;;;;;6.80;99.90;;;;;;5031590;28;19956;-78
2022/01/09 04:32:26;;;;;;;;;;;6.90;99.90;;;;;;4998497;28;19926;-78
2022/01/09 04:34:53;;;;;;;;;;;6.90;99.90;;;;;;4998351;28;19935;-78
2022/01/09 04:37:21;;;;;;;;;;;6.90;99.90;;;;;;4998237;28;19932;-78
2022/01/09 04:39:50;;;;;;;;;;;6.90;99.90;;;;;;4998517;28;19948;-78
2022/01/09 04:42:18;;;;;;;;;;;6.90;99.90;;;;;;5014756;28;19961;-77
2022/01/09 04:44:44;;;;;;;;;;;6.90;99.90;;;;;;5031378;28;19968;-78
2022/01/09 04:47:15;;;;;;;;;;;6.90;99.90;;;;;;5015775;28;20020;-78
2022/01/09 04:49:44;;;;;;;;;;;6.90;99.90;;;;;;4998520;28;19926;-79
2022/01/09 04:52:14;;;;;;;;;;;6.90;99.90;;;;;;4998038;28;19968;-78
2022/01/09 04:54:42;;;;;;;;;;;7.00;99.90;;;;;;4988442;28;19965;-78
2022/01/09 04:57:09;;;;;;;;;;;6.90;99.90;;;;;;5007748;28;19925;-78
2022/01/09 04:59:36;;;;;;;;;;;7.00;99.90;;;;;;4981677;28;19933;-78
2022/01/09 05:02:03;;;;;;;;;;;7.00;99.90;;;;;;4998230;28;19932;-78
2022/01/09 05:04:30;;;;;;;;;;;6.90;99.90;;;;;;4997791;28;20028;-78
2022/01/09 05:06:57;;;;;;;;;;;6.90;99.90;;;;;;4997279;28;19925;-78
2022/01/09 05:09:24;;;;;;;;;;;6.90;99.90;;;;;;4998136;28;19925;-78
2022/01/09 05:11:52;;;;;;;;;;;6.90;99.80;;;;;;4981537;28;19926;-78
2022/01/09 05:14:19;;;;;;;;;;;6.90;99.80;;;;;;4998175;28;20450;-78
2022/01/09 05:16:46;;;;;;;;;;;6.90;99.80;;;;;;5030607;28;19926;-78
2022/01/09 05:19:19;;;;;;;;;;;6.90;99.70;;;;;;4997587;28;19926;-78
2022/01/09 05:21:46;;;;;;;;;;;6.90;99.70;;;;;;5010922;28;19932;-78
2022/01/09 05:24:13;;;;;;;;;;;6.90;99.60;;;;;;4983750;28;20315;-78
2022/01/09 05:26:40;;;;;;;;;;;6.90;99.50;;;;;;5030405;28;19930;-77
2022/01/09 05:29:08;;;;;;;;;;;6.80;99.40;;;;;;5013922;28;19925;-78
2022/01/09 05:31:35;;;;;;;;;;;6.80;99.60;;;;;;4997631;28;20367;-78
2022/01/09 05:34:01;;;;;;;;;;;6.80;99.40;;;;;;4997468;28;19960;-78
2022/01/09 05:36:28;;;;;;;;;;;6.80;99.50;;;;;;5030148;28;19949;-77
2022/01/09 05:38:55;;;;;;;;;;;6.80;99.30;;;;;;5030300;28;19933;-77
2022/01/09 05:41:22;;;;;;;;;;;6.80;99.30;;;;;;5015302;28;20020;-77
2022/01/09 05:43:49;;;;;;;;;;;6.80;99.30;;;;;;5030016;28;20017;-77
2022/01/09 05:46:17;;;;;;;;;;;6.80;99.30;;;;;;5013618;28;19932;-77
2022/01/09 05:48:44;;;;;;;;;;;6.80;99.10;;;;;;4997376;28;19932;-77
2022/01/09 05:51:11;;;;;;;;;;;6.80;99.10;;;;;;5013708;28;19932;-77
2022/01/09 05:53:38;;;;;;;;;;;6.80;99.10;;;;;;4981647;28;19930;-77
2022/01/09 05:56:05;;;;;;;;;;;6.80;99.00;;;;;;4976983;28;19926;-77
2022/01/09 05:58:33;;;;;;;;;;;6.80;99.10;;;;;;5013869;28;19929;-78
2022/01/09 06:01:00;;;;;;;;;;;6.80;99.10;;;;;;5014238;28;19926;-78
2022/01/09 06:03:28;;;;;;;;;;;6.80;99.10;;;;;;4981111;28;19976;-77
2022/01/09 06:05:55;;;;;;;;;;;6.80;99.10;;;;;;5029708;28;19956;-77
2022/01/09 06:08:22;;;;;;;;;;;6.70;99.10;;;;;;5015012;28;19925;-78
2022/01/09 06:10:50;;;;;;;;;;;6.70;99.20;;;;;;4997175;28;19932;-78
2022/01/09 06:13:17;;;;;;;;;;;6.70;99.20;;;;;;4997056;28;20402;-77
2022/01/09 06:15:44;;;;;;;;;;;6.70;99.10;;;;;;5013423;28;20415;-78
2022/01/09 06:18:11;;;;;;;;;;;6.70;99.00;;;;;;5000121;28;19932;-77
2022/01/09 06:20:40;;;;;;;;;;;6.70;99.10;;;;;;5033277;28;20024;-77
2022/01/09 06:23:07;;;;;;;;;;;6.60;99.10;;;;;;5033557;28;20354;-77
2022/01/09 06:25:33;;;;;;;;;;;6.60;99.10;;;;;;5000336;28;19933;-77
2022/01/09 06:28:00;;;;;;;;;;;6.60;99.40;;;;;;5016726;28;20284;-78
2022/01/09 06:30:27;;;;;;;;;;;6.60;99.20;;;;;;5033587;28;19932;-77
2022/01/09 06:32:54;;;;;;;;;;;6.60;99.20;;;;;;5015264;28;20116;-77
2022/01/09 06:35:21;;;;;;;;;;;6.70;99.20;;;;;;5016495;28;19932;-77
2022/01/09 06:37:49;;;;;;;;;;;6.60;99.20;;;;;;5024204;28;19926;-77
2022/01/09 06:40:17;;;;;;;;;;;6.60;99.20;;;;;;5025861;28;19925;-78
2022/01/09 06:42:44;;;;;;;;;;;6.60;99.20;;;;;;5032836;28;19932;-77
2022/01/09 06:45:11;;;;;;;;;;;6.60;99.10;;;;;;5017733;28;20384;-77
2022/01/09 06:47:37;;;;;;;;;;;6.60;99.00;;;;;;4999819;28;20020;-77
2022/01/09 06:50:05;;;;;;;;;;;6.60;99.00;;;;;;5000045;28;19925;-77
2022/01/09 06:52:32;;;;;;;;;;;6.60;99.10;;;;;;4985942;28;19985;-77
2022/01/09 06:55:00;;;;;;;;;;;6.60;99.00;;;;;;5030555;28;20280;-77
2022/01/09 06:57:27;;;;;;;;;;;6.50;98.90;;;;;;5017708;28;20351;-77
2022/01/09 06:59:54;;;;;;;;;;;6.50;98.90;;;;;;5032725;28;19926;-77
2022/01/09 07:02:21;;;;;;;;;;;6.50;98.90;;;;;;4999710;28;19929;-78
2022/01/09 07:04:47;;;;;;;;;;;6.50;98.80;;;;;;5016044;28;19925;-78
2022/01/09 07:07:14;;;;;;;;;;;6.50;98.80;;;;;;4984287;28;19926;-78
2022/01/09 07:09:41;;;;;;;;;;;6.40;98.80;;;;;;4997129;28;19925;-77
2022/01/09 07:12:10;;;;;;;;;;;6.40;98.80;;;;;;4999154;28;20408;-77
2022/01/09 07:14:37;;;;;;;;;;;6.40;98.70;;;;;;4998686;28;19925;-77
2022/01/09 07:17:04;;;;;;;;;;;6.30;98.80;;;;;;4998899;28;19925;-77
2022/01/09 07:19:31;;;;;;;;;;;6.30;98.80;;;;;;5015627;28;19925;-76
2022/01/09 07:21:59;;;;;;;;;;;6.30;98.90;;;;;;4997289;28;19937;-77
2022/01/09 07:24:25;;;;;;;;;;;6.20;98.70;;;;;;5029729;28;19926;-77
2022/01/09 07:26:52;;;;;;;;;;;6.20;98.80;;;;;;4987755;28;20331;-77
2022/01/09 07:29:20;;;;;;;;;;;6.20;98.60;;;;;;4974169;28;19926;-77
2022/01/09 07:31:47;;;;;;;;;;;6.20;98.60;;;;;;4997784;28;19930;-77
2022/01/09 07:34:14;;;;;;;;;;;6.20;98.50;;;;;;5015135;28;19933;-76
2022/01/09 07:36:41;;;;;;;;;;;6.20;98.40;;;;;;5015087;28;19931;-77
2022/01/09 07:39:08;;;;;;;;;;;6.20;98.40;;;;;;4980854;28;19933;-78
2022/01/09 07:41:35;;;;;;;;;;;6.20;98.30;;;;;;4983140;28;19940;-76
2022/01/09 07:44:02;;;;;;;;;;;6.20;98.30;;;;;;4994409;28;19933;-77
2022/01/09 07:46:30;;;;;;;;;;;6.10;98.30;;;;;;5030614;28;19926;-77
2022/01/09 07:48:57;;;;;;;;;;;6.10;98.30;;;;;;5013682;28;20728;-76
2022/01/09 07:51:24;;;;;;;;;;;6.10;98.10;;;;;;4999756;28;19930;-77
2022/01/09 07:53:51;;;;;;;;;;;6.10;98.20;;;;;;5017616;28;19933;-77
2022/01/09 07:56:18;;;;;;;;;;;6.10;98.40;;;;;;4997101;28;19932;-76
2022/01/09 07:58:45;;;;;;;;;;;6.10;98.20;;;;;;5013002;28;19956;-77
2022/01/09 08:01:12;;;;;;;;;;;6.10;98.10;;;;;;4996555;28;19936;-77
2022/01/09 08:03:40;;;;;;;;;;;6.10;98.20;;;;;;5012645;28;19933;-77
2022/01/09 08:06:07;;;;;;;;;;;6.00;98.20;;;;;;5014144;28;19925;-79
2022/01/09 08:08:34;;;;;;;;;;;6.00;98.40;;;;;;5011099;28;19926;-79
2022/01/09 08:11:01;;;;;;;;;;;6.00;98.40;;;;;;5012372;28;19930;-78
2022/01/09 08:13:28;;;;;;;;;;;6.00;98.40;;;;;;5029188;28;19925;-79
2022/01/09 08:15:55;;;;;;;;;;;6.00;98.50;;;;;;5011606;28;19926;-78
2022/01/09 08:18:22;;;;;;;;;;;6.00;98.50;;;;;;4996361;28;19928;-78
2022/01/09 08:20:50;;;;;;;;;;;6.00;98.50;;;;;;4996482;28;19929;-78
2022/01/09 08:23:17;;;;;;;;;;;6.00;98.50;;;;;;4996388;28;19925;-77
2022/01/09 08:25:44;;;;;;;;;;;6.00;98.50;;;;;;4985308;28;19925;-80
2022/01/09 08:28:11;;;;;;;;;;;6.00;98.40;;;;;;5012424;28;19932;-77
2022/01/09 08:30:38;;;;;;;;;;;6.00;98.50;;;;;;5014149;28;20040;-78
2022/01/09 08:33:05;;;;;;;;;;;5.90;98.50;;;;;;4996834;28;20402;-77
2022/01/09 08:35:32;;;;;;;;;;;5.90;98.60;;;;;;4996955;28;20697;-80
2022/01/09 08:38:00;;;;;;;;;;;5.90;98.60;;;;;;5003798;28;19926;-76
2022/01/09 08:40:27;;;;;;;;;;;5.90;98.60;;;;;;4990188;28;20950;-81
2022/01/09 08:42:54;;;;;;;;;;;6.00;98.60;;;;;;5013058;28;19932;-79
2022/01/09 08:45:22;;;;;;;;;;;5.90;98.60;;;;;;4997116;28;19932;-81
2022/01/09 08:47:49;;;;;;;;;;;5.90;98.60;;;;;;4998717;28;20404;-77
2022/01/09 08:50:17;;;;;;;;;;;6.00;98.60;;;;;;4989625;28;20446;-80
2022/01/09 08:52:44;;;;;;;;;;;6.00;98.60;;;;;;5022507;28;19933;-80
2022/01/09 08:55:13;;;;;;;;;;;5.90;98.70;;;;;;4964214;28;20020;-80
2022/01/09 08:57:40;;;;;;;;;;;5.90;98.70;;;;;;5028270;28;20747;-78
2022/01/09 09:00:08;;;;;;;;;;;6.00;98.60;;;;;;5014217;28;19972;-83
2022/01/09 09:02:35;;;;;;;;;;;6.00;98.60;;;;;;5028641;28;19926;-89
2022/01/09 09:05:02;;;;;;;;;;;6.00;98.60;;;;;;5013476;28;19969;-84
2022/01/09 09:07:29;;;;;;;;;;;6.00;98.70;;;;;;5027916;28;19968;-82
2022/01/09 09:10:03;;;;;;;;;;;6.00;98.70;;;;;;4995873;28;20028;-82
2022/01/09 09:12:32;;;;;;;;;;;6.00;98.70;;;;;;4984404;28;20410;-81
2022/01/09 09:14:59;;;;;;;;;;;6.00;98.70;;;;;;4995628;28;20395;-82
2022/01/09 09:17:26;;;;;;;;;;;6.00;98.70;;;;;;4995681;28;19929;-85
2022/01/09 09:19:53;;;;;;;;;;;6.00;98.70;;;;;;5012473;28;19934;-83
2022/01/09 09:22:20;;;;;;;;;;;6.00;98.70;;;;;;5028804;28;19925;-83
2022/01/09 09:24:47;;;;;;;;;;;6.00;98.80;;;;;;4976766;28;19926;-82
2022/01/09 09:27:14;;;;;;;;;;;6.00;98.80;;;;;;4995812;28;20249;-80
2022/01/09 09:29:42;;;;;;;;;;;6.00;98.80;;;;;;4999746;28;19936;-80
2022/01/09 09:32:09;;;;;;;;;;;6.00;98.90;;;;;;4996102;28;20020;-82
2022/01/09 09:34:38;;;;;;;;;;;6.00;98.70;;;;;;4995930;28;20021;-81
2022/01/09 09:37:06;;;;;;;;;;;6.00;98.70;;;;;;5028556;28;19956;-80
2022/01/09 09:39:32;;;;;;;;;;;6.00;98.70;;;;;;4979648;28;19938;-81
2022/01/09 09:42:00;;;;;;;;;;;6.00;98.60;;;;;;4995981;28;19925;-80
2022/01/09 09:44:27;;;;;;;;;;;6.10;98.60;;;;;;5012404;28;19926;-82
2022/01/09 09:46:56;;;;;;;;;;;6.10;98.40;;;;;;4995731;28;20028;-82
2022/01/09 09:49:23;;;;;;;;;;;6.10;98.40;;;;;;4990151;28;19930;-81
2022/01/09 09:51:50;;;;;;;;;;;6.10;98.40;;;;;;4995064;28;19972;-81
2022/01/09 09:54:16;;;;;;;;;;;6.10;98.50;;;;;;4994807;28;20272;-81
2022/01/09 09:56:43;;;;;;;;;;;6.10;98.50;;;;;;4995757;28;20351;-85
2022/01/09 09:59:10;;;;;;;;;;;6.10;98.40;;;;;;4991070;28;19930;-83
2022/01/09 10:01:37;;;;;;;;;;;6.10;98.30;;;;;;4995578;28;20417;-84
2022/01/09 10:04:07;;;;;;;;;;;6.10;98.40;;;;;;4979340;28;20008;-84
2022/01/09 10:06:35;;;;;;;;;;;6.10;98.20;;;;;;4995244;28;19969;-82
2022/01/09 10:09:05;;;;;;;;;;;6.10;98.10;;;;;;4993854;28;19930;-82
2022/01/09 10:11:41;;;;;;;;;;;6.10;98.00;;;;;;5009618;28;19926;-82
2022/01/09 10:14:12;;;;;;;;;;;6.20;97.80;;;;;;5027900;28;19976;-81
2022/01/09 10:16:39;;;;;;;;;;;6.10;98.00;;;;;;4994979;28;20398;-85
2022/01/09 10:19:08;;;;;;;;;;;6.20;97.80;;;;;;5028000;28;20920;-77
2022/01/09 10:21:34;;;;;;;;;;;6.20;97.90;;;;;;5015945;28;19956;-77
2022/01/09 10:24:03;;;;;;;;;;;6.10;97.90;;;;;;5011418;28;19926;-79
2022/01/09 10:26:30;;;;;;;;;;;6.20;97.70;;;;;;5011742;28;19925;-79
2022/01/09 10:28:57;;;;;;;;;;;6.20;97.50;;;;;;4994820;28;20040;-78
2022/01/09 10:31:26;;;;;;;;;;;6.20;97.80;;;;;;4994641;28;19957;-80
2022/01/09 10:33:56;;;;;;;;;;;6.20;97.70;;;;;;5008816;28;19932;-80
2022/01/09 10:36:41;;;;;;;;;;;6.20;97.60;;;;;;4968344;28;19961;-80
2022/01/09 10:39:11;;;;;;;;;;;6.20;97.60;;;;;;5003211;28;20391;-82
2022/01/09 10:41:55;;;;;;;;;;;6.20;97.80;;;;;;5011338;28;19926;-81
2022/01/09 10:44:27;;;;;;;;;;;6.20;97.80;;;;;;5011661;28;20418;-80
2022/01/09 10:46:55;;;;;;;;;;;6.30;97.70;;;;;;5011329;28;19992;-80
2022/01/09 10:49:22;;;;;;;;;;;6.30;97.60;;;;;;4994890;28;20498;-80
2022/01/09 10:51:49;;;;;;;;;;;6.30;97.70;;;;;;5011858;28;20681;-80
2022/01/09 10:54:31;;;;;;;;;;;6.30;97.80;;;;;;4994886;28;20068;-80
2022/01/09 10:57:13;;;;;;;;;;;6.30;97.90;;;;;;4977209;28;20013;-83
2022/01/09 10:59:40;;;;;;;;;;;6.30;98.00;;;;;;4995029;28;20071;-76
2022/01/09 11:02:09;;;;;;;;;;;6.30;98.00;;;;;;4995127;28;19933;-79
2022/01/09 11:04:36;;;;;;;;;;;6.30;98.40;;;;;;5030556;28;19961;-80
2022/01/09 11:07:03;;;;;;;;;;;6.40;98.20;;;;;;5015028;28;19925;-80
2022/01/09 11:09:32;;;;;;;;;;;6.30;98.30;;;;;;4988590;28;20020;-79
2022/01/09 11:11:59;;;;;;;;;;;6.40;98.30;;;;;;5026457;28;19925;-80
2022/01/09 11:14:27;;;;;;;;;;;6.40;98.40;;;;;;5032511;28;20012;-80
2022/01/09 11:16:54;;;;;;;;;;;6.40;98.50;;;;;;5032140;28;20020;-81
2022/01/09 11:19:22;;;;;;;;;;;6.50;98.50;;;;;;4998977;28;19930;-79
2022/01/09 11:21:49;;;;;;;;;;;6.50;98.50;;;;;;4998570;28;20000;-79
2022/01/09 11:24:39;;;;;;;;;;;6.60;98.30;;;;;;4998853;28;20048;-77
2022/01/09 11:27:12;;;;;;;;;;;6.60;98.30;;;;;;5017669;28;19932;-76
2022/01/09 11:29:42;;;;;;;;;;;6.70;98.40;;;;;;4998030;28;19936;-78
2022/01/09 11:32:13;;;;;;;;;;;6.70;98.40;;;;;;5010608;28;20020;-77
2022/01/09 11:34:47;;;;;;;;;;;6.80;98.20;;;;;;4998651;28;19932;-77
2022/01/09 11:37:23;;;;;;;;;;;6.80;98.20;;;;;;5031499;28;19933;-77
2022/01/09 11:39:50;;;;;;;;;;;6.90;98.10;;;;;;5015627;28;20380;-77
2022/01/09 11:42:17;;;;;;;;;;;6.90;98.10;;;;;;4999169;28;19925;-77
2022/01/09 11:44:47;;;;;;;;;;;6.90;98.10;;;;;;4996490;28;19926;-77
2022/01/09 11:47:14;;;;;;;;;;;6.90;98.10;;;;;;5016461;28;19926;-77
2022/01/09 11:50:01;;;;;;;;;;;7.00;98.20;;;;;;5016364;28;19936;-77
2022/01/09 11:52:28;;;;;;;;;;;7.00;98.10;;;;;;4998447;28;19947;-77
2022/01/09 11:54:56;;;;;;;;;;;7.00;98.00;;;;;;4998964;28;19926;-78
2022/01/09 11:57:37;;;;;;;;;;;7.00;98.00;;;;;;5016005;28;20405;-77
2022/01/09 12:00:07;;;;;;;;;;;7.00;98.00;;;;;;4981124;28;20055;-77
2022/01/09 12:02:38;;;;;;;;;;;7.00;98.10;;;;;;5016911;28;20351;-77
2022/01/09 12:05:06;;;;;;;;;;;7.00;98.20;;;;;;4982282;28;19932;-77
2022/01/09 12:08:05;;;;;;;;;;;7.10;98.20;;;;;;4997363;28;19929;-77
2022/01/09 12:10:35;;;;;;;;;;;7.10;98.30;;;;;;5016337;28;19925;-77
2022/01/09 12:13:03;;;;;;;;;;;7.10;98.30;;;;;;5031283;28;20701;-77
2022/01/09 12:15:35;;;;;;;;;;;7.10;98.40;;;;;;5014841;28;19925;-83
2022/01/09 12:18:03;;;;;;;;;;;7.20;98.30;;;;;;4997408;28;19925;-76
2022/01/09 12:20:37;;;;;;;;;;;7.20;98.10;;;;;;4997908;28;20459;-78
2022/01/09 12:23:05;;;;;;;;;;;7.30;98.20;;;;;;5008518;28;19926;-80
2022/01/09 12:25:40;;;;;;;;;;;7.30;98.10;;;;;;4996769;28;19926;-77
2022/01/09 12:28:08;;;;;;;;;;;7.30;98.20;;;;;;5014671;28;20017;-77
2022/01/09 12:30:51;;;;;;;;;;;7.40;98.20;;;;;;4997089;28;19929;-78
2022/01/09 12:33:38;;;;;;;;;;;7.40;98.10;;;;;;5015774;28;19926;-78
2022/01/09 12:36:07;;;;;;;;;;;7.40;98.00;;;;;;5013763;28;19933;-78
2022/01/09 12:38:35;;;;;;;;;;;7.50;98.10;;;;;;5000521;28;20665;-78
2022/01/09 12:41:03;;;;;;;;;;;7.40;98.20;;;;;;4998422;28;19930;-78
2022/01/09 12:43:30;;;;;;;;;;;7.50;98.20;;;;;;5016072;28;20116;-79
2022/01/09 12:45:59;;;;;;;;;;;7.50;98.10;;;;;;5014244;28;19925;-78
2022/01/09 12:48:27;;;;;;;;;;;7.50;97.90;;;;;;4998296;28;19925;-78
2022/01/09 12:50:55;;;;;;;;;;;7.50;98.10;;;;;;4998260;28;19930;-78
2022/01/09 12:53:22;;;;;;;;;;;7.60;97.90;;;;;;5028037;28;19932;-77
2022/01/09 12:55:55;;;;;;;;;;;7.50;97.70;;;;;;5010750;28;19925;-78
2022/01/09 12:58:22;;;;;;;;;;;7.50;97.60;;;;;;4996639;28;19961;-77
2022/01/09 13:04:44;;;;;;;;;;;7.50;97.20;;;;;;5071001;23;19928;-78
2022/01/09 13:07:15;;;;;;;;;;;7.50;97.00;;;;;;5046008;28;19931;-79
2022/01/09 13:09:42;;;;;;;;;;;7.50;97.10;;;;;;5053740;28;19925;-79
2022/01/09 13:12:08;;;;;;;;;;;7.50;97.00;;;;;;5053782;28;19929;-78
2022/01/09 13:14:36;;;;;;;;;;;7.50;96.80;;;;;;5053423;28;19925;-79
2022/01/09 13:17:05;;;;;;;;;;;7.40;96.70;;;;;;5048155;28;20007;-78
2022/01/09 13:19:31;;;;;;;;;;;7.40;96.60;;;;;;5037138;28;19933;-79
2022/01/09 13:22:02;;;;;;;;;;;7.40;96.50;;;;;;5043305;28;19935;-79
2022/01/09 13:24:29;;;;;;;;;;;7.30;96.50;;;;;;5051921;28;20369;-79
2022/01/09 13:26:56;;;;;;;;;;;7.30;96.40;;;;;;4948161;28;19924;-79
2022/01/09 13:29:24;;;;;;;;;;;7.20;96.60;;;;;;5048855;28;19929;-79
2022/01/09 13:31:52;;;;;;;;;;;7.20;96.80;;;;;;5045680;28;20009;-79
2022/01/09 13:34:54;;;;;;;;;;;7.10;96.80;;;;;;5092247;27;19931;-79
2022/01/09 13:37:21;;;;;;;;;;;7.10;96.80;;;;;;5065714;28;19972;-79
2022/01/09 13:39:49;;;;;;;;;;;7.10;96.70;;;;;;5118783;27;19929;-78
2022/01/09 13:42:21;;;;;;;;;;;7.10;96.70;;;;;;5080945;28;19939;-78
2022/01/09 13:45:00;;;;;;;;;;;7.10;96.60;;;;;;5073572;28;19960;-78
2022/01/09 13:47:27;;;;;;;;;;;7.00;96.70;;;;;;5071772;28;20020;-79
2022/01/09 13:50:02;;;;;;;;;;;7.00;96.80;;;;;;5076260;28;20394;-78
2022/01/09 13:52:33;;;;;;;;;;;6.90;96.80;;;;;;5113109;27;20508;-78
2022/01/09 13:55:02;;;;;;;;;;;6.90;96.90;;;;;;5068507;28;20438;-78
2022/01/09 13:57:29;;;;;;;;;;;6.90;96.90;;;;;;5090378;28;19929;-79
2022/01/09 13:59:59;;;;;;;;;;;6.90;96.70;;;;;;5070414;28;19935;-78
2022/01/09 14:02:26;;;;;;;;;;;6.90;96.90;;;;;;5069173;28;20395;-78
2022/01/09 14:07:51;;;;;;;;;;;6.90;97.00;;;;;;5139023;27;19923;-79
2022/01/09 14:10:18;;;;;;;;;;;6.90;97.00;;;;;;5145324;27;20397;-79
2022/01/09 14:12:47;;;;;;;;;;;7.00;97.10;;;;;;5143131;27;20437;-77
2022/01/09 14:15:14;;;;;;;;;;;7.00;97.10;;;;;;5131463;27;19931;-77
2022/01/09 14:17:44;;;;;;;;;;;7.00;97.10;;;;;;5121467;27;19928;-77
2022/01/09 14:20:16;;;;;;;;;;;7.00;97.10;;;;;;5141276;27;19928;-77
2022/01/09 14:22:44;;;;;;;;;;;7.00;97.10;;;;;;5135720;27;19936;-77
2022/01/09 14:25:13;;;;;;;;;;;7.10;97.10;;;;;;5151913;27;19943;-77
2022/01/09 14:27:41;;;;;;;;;;;7.10;97.10;;;;;;5140909;27;20031;-77
2022/01/09 14:30:23;;;;;;;;;;;7.10;97.10;;;;;;5131405;27;19978;-77
2022/01/09 14:32:51;;;;;;;;;;;7.10;97.10;;;;;;5114601;27;19927;-77
2022/01/09 14:35:28;;;;;;;;;;;7.10;97.30;;;;;;5151465;27;19932;-77
2022/01/09 14:37:58;;;;;;;;;;;7.00;97.30;;;;;;5145313;27;19934;-77
2022/01/09 14:40:26;;;;;;;;;;;7.00;97.30;;;;;;5131171;27;19935;-77
2022/01/09 14:42:53;;;;;;;;;;;7.00;97.30;;;;;;5131218;27;19958;-78
2022/01/09 14:45:20;;;;;;;;;;;7.00;97.30;;;;;;5130838;27;19932;-77